createdAt,value
2022-12-17T00:02:34.253Z,44.92
2022-12-17T00:05:55.993Z,41.58
2022-12-17T00:09:17.408Z,42.53
2022-12-17T00:12:38.320Z,46.58
2022-12-17T00:15:59.302Z,50.17
2022-12-17T00:19:19.970Z,46.22
2022-12-17T00:22:40.800Z,41.47
2022-12-17T00:26:01.601Z,46.15
2022-12-17T00:29:25.265Z,53.78
2022-12-17T00:32:58.894Z,45.42
2022-12-17T00:36:21.218Z,42.85
2022-12-17T00:39:42.191Z,47.70
2022-12-17T00:43:06.672Z,50.13
2022-12-17T00:46:27.480Z,47.70
2022-12-17T00:49:48.226Z,48.92
2022-12-17T00:53:11.645Z,47.17
2022-12-17T00:56:32.980Z,44.85
2022-12-17T00:59:53.911Z,49.78
2022-12-17T01:03:29.925Z,47.05
2022-12-17T01:06:50.836Z,45.85
2022-12-17T01:10:13.887Z,47.22
2022-12-17T01:13:36.395Z,42.47
2022-12-17T01:16:57.423Z,42.60
2022-12-17T01:20:18.158Z,37.45
2022-12-17T01:23:39.756Z,45.50
2022-12-17T01:27:01.500Z,34.55
2022-12-17T01:30:22.737Z,44.97
2022-12-17T01:33:43.460Z,45.35
2022-12-17T01:37:04.397Z,46.50
2022-12-17T01:40:25.725Z,42.33
2022-12-17T01:44:15.196Z,48.25
2022-12-17T01:47:37.094Z,36.28
2022-12-17T01:51:03.282Z,35.83
2022-12-17T01:54:24.471Z,35.22
2022-12-17T01:57:45.972Z,43.92
2022-12-17T02:01:06.878Z,44.58
2022-12-17T02:04:29.444Z,37.97
2022-12-17T02:08:05.133Z,44.00
2022-12-17T02:11:48.141Z,46.97
2022-12-17T02:15:17.977Z,43.30
2022-12-17T02:18:47.058Z,48.65
2022-12-17T02:22:16.495Z,42.25
2022-12-17T02:25:55.322Z,51.00
2022-12-17T02:29:17.483Z,54.28
2022-12-17T02:32:40.819Z,51.28
2022-12-17T02:36:06.160Z,44.70
2022-12-17T02:39:26.808Z,39.97
2022-12-17T02:42:49.776Z,49.60
2022-12-17T02:46:11.161Z,43.75
2022-12-17T02:49:32.388Z,39.25
2022-12-17T02:52:59.780Z,47.40
2022-12-17T02:56:24.323Z,48.20
2022-12-17T02:59:45.089Z,48.97
2022-12-17T03:03:10.714Z,41.55
2022-12-17T03:06:40.332Z,41.55
2022-12-17T03:13:22.881Z,54.78
2022-12-17T03:16:43.744Z,46.58
2022-12-17T03:20:04.393Z,46.85
2022-12-17T03:23:28.288Z,48.88
2022-12-17T03:26:49.946Z,48.55
2022-12-17T03:30:14.315Z,47.65
2022-12-17T03:33:37.308Z,58.55
2022-12-17T03:36:58.915Z,61.00
2022-12-17T03:40:19.873Z,45.40
2022-12-17T03:43:41.258Z,38.83
2022-12-17T03:47:02.078Z,35.00
2022-12-17T03:50:23.923Z,42.95
2022-12-17T03:53:46.276Z,41.63
2022-12-17T03:57:11.739Z,40.67
2022-12-17T04:00:35.749Z,35.60
2022-12-17T04:03:56.223Z,28.75
2022-12-17T04:07:18.152Z,34.92
2022-12-17T04:10:44.157Z,33.17
2022-12-17T04:14:05.819Z,29.45
2022-12-17T04:17:26.959Z,29.02
2022-12-17T04:20:48.385Z,33.00
2022-12-17T04:24:10.664Z,27.70
2022-12-17T04:27:31.478Z,30.25
2022-12-17T04:30:52.666Z,28.50
2022-12-17T04:34:14.166Z,34.30
2022-12-17T04:37:35.188Z,32.42
2022-12-17T04:40:57.001Z,28.27
2022-12-17T04:44:17.552Z,29.05
2022-12-17T04:47:38.583Z,29.58
2022-12-17T04:50:59.372Z,35.60
2022-12-17T04:54:20.168Z,33.40
2022-12-17T04:57:41.088Z,35.67
2022-12-17T05:01:01.988Z,30.80
2022-12-17T05:04:22.755Z,32.63
2022-12-17T05:07:43.680Z,32.75
2022-12-17T05:11:24.445Z,29.08
2022-12-17T05:14:45.382Z,30.75
2022-12-17T05:18:06.125Z,34.45
2022-12-17T05:21:30.536Z,27.55
2022-12-17T05:24:54.811Z,33.17
2022-12-17T05:28:15.889Z,26.83
2022-12-17T05:31:37.861Z,34.55
2022-12-17T05:34:59.095Z,32.55
2022-12-17T05:38:27.969Z,34.30
2022-12-17T05:41:48.421Z,34.43
2022-12-17T05:45:09.599Z,32.25
2022-12-17T05:48:30.207Z,35.47
2022-12-17T05:51:50.894Z,37.08
2022-12-17T05:55:11.501Z,36.10
2022-12-17T05:58:32.335Z,37.50
2022-12-17T06:01:53.467Z,39.50
2022-12-17T06:05:15.204Z,39.83
2022-12-17T06:08:35.741Z,36.92
2022-12-17T06:12:02.356Z,33.58
2022-12-17T06:15:24.630Z,22.13
2022-12-17T06:18:45.500Z,24.33
2022-12-17T06:22:06.123Z,26.70
2022-12-17T06:25:27.329Z,23.70
2022-12-17T06:29:02.639Z,28.98
2022-12-17T06:32:25.518Z,36.95
2022-12-17T06:35:46.517Z,38.30
2022-12-17T06:39:07.219Z,45.53
2022-12-17T06:42:27.797Z,39.90
2022-12-17T06:45:48.283Z,32.60
2022-12-17T06:49:09.047Z,39.50
2022-12-17T06:52:29.615Z,40.92
2022-12-17T06:55:51.521Z,31.67
2022-12-17T06:59:12.896Z,22.45
2022-12-17T07:02:34.239Z,28.23
2022-12-17T07:05:55.188Z,25.65
2022-12-17T07:09:16.005Z,28.95
2022-12-17T07:12:37.042Z,32.38
2022-12-17T07:15:58.590Z,29.75
2022-12-17T07:19:23.860Z,28.52
2022-12-17T07:22:47.755Z,31.27
2022-12-17T07:26:08.493Z,33.72
2022-12-17T07:29:30.546Z,29.00
2022-12-17T07:32:51.363Z,26.85
2022-12-17T07:36:13.883Z,27.55
2022-12-17T07:39:34.612Z,24.48
2022-12-17T07:42:55.409Z,28.70
2022-12-17T07:46:16.286Z,23.48
2022-12-17T07:49:47.568Z,24.10
2022-12-17T07:53:17.791Z,22.08
2022-12-17T07:56:38.362Z,29.13
2022-12-17T07:59:59.445Z,29.38
2022-12-17T08:03:20.432Z,26.52
2022-12-17T08:06:43.093Z,32.90
2022-12-17T08:10:03.958Z,30.73
2022-12-17T08:13:25.320Z,29.50
2022-12-17T08:16:46.293Z,32.30
2022-12-17T08:20:07.475Z,33.53
2022-12-17T08:23:28.199Z,29.20
2022-12-17T08:26:51.580Z,31.58
2022-12-17T08:30:12.470Z,34.42
2022-12-17T08:33:33.434Z,35.10
2022-12-17T08:36:54.578Z,35.90
2022-12-17T08:40:15.413Z,34.83
2022-12-17T08:43:37.550Z,31.45
2022-12-17T08:46:58.861Z,32.35
2022-12-17T08:50:19.675Z,22.48
2022-12-17T08:53:40.909Z,21.23
2022-12-17T08:57:01.982Z,27.55
2022-12-17T09:00:25.371Z,32.97
2022-12-17T09:03:45.911Z,25.27
2022-12-17T09:07:09.177Z,21.15
2022-12-17T09:10:30.332Z,29.83
2022-12-17T09:13:51.237Z,24.10
2022-12-17T09:17:13.070Z,21.58
2022-12-17T09:20:35.137Z,35.28
2022-12-17T09:23:57.326Z,23.45
2022-12-17T09:27:18.800Z,28.95
2022-12-17T09:30:59.933Z,24.63
2022-12-17T09:34:21.617Z,26.98
2022-12-17T09:37:42.698Z,23.23
2022-12-17T09:41:06.709Z,34.83
2022-12-17T09:44:38.160Z,35.28
2022-12-17T09:48:26.890Z,35.10
2022-12-17T09:51:53.279Z,34.03
2022-12-17T09:55:13.835Z,32.45
2022-12-17T09:58:41.510Z,36.47
2022-12-17T10:02:03.285Z,38.40
2022-12-17T10:05:29.949Z,40.05
2022-12-17T10:08:50.755Z,39.38
2022-12-17T10:12:11.591Z,40.85
2022-12-17T10:15:34.530Z,35.05
2022-12-17T10:19:02.311Z,31.33
2022-12-17T10:22:29.342Z,39.53
2022-12-17T10:25:50.041Z,41.17
2022-12-17T10:29:20.449Z,36.35
2022-12-17T10:32:45.068Z,40.65
2022-12-17T10:36:05.906Z,40.47
2022-12-17T10:39:37.495Z,40.97
2022-12-17T10:42:59.005Z,37.45
2022-12-17T10:46:19.874Z,36.70
2022-12-17T10:49:42.938Z,37.67
2022-12-17T10:53:05.940Z,41.38
2022-12-17T10:56:40.401Z,41.47
2022-12-17T11:00:02.105Z,35.45
2022-12-17T11:03:22.859Z,36.70
2022-12-17T11:06:49.921Z,36.22
2022-12-17T11:10:15.124Z,41.47
2022-12-17T11:13:56.285Z,34.58
2022-12-17T11:17:22.235Z,30.55
2022-12-17T11:20:53.420Z,31.60
2022-12-17T11:24:22.426Z,34.90
2022-12-17T11:27:48.936Z,35.85
2022-12-17T11:31:35.387Z,33.78
2022-12-17T11:35:23.970Z,33.22
2022-12-17T11:38:58.107Z,33.45
2022-12-17T11:42:20.977Z,34.00
2022-12-17T11:45:55.010Z,35.65
2022-12-17T11:49:30.982Z,34.25
2022-12-17T11:53:09.034Z,32.88
2022-12-17T11:56:57.692Z,38.65
2022-12-17T12:00:39.506Z,26.73
2022-12-17T12:04:43.056Z,24.00
2022-12-17T12:08:16.680Z,27.63
2022-12-17T12:11:57.275Z,23.52
2022-12-17T12:15:20.854Z,24.25
2022-12-17T12:19:19.950Z,28.25
2022-12-17T12:22:52.714Z,26.55
2022-12-17T12:26:40.247Z,25.45
2022-12-17T12:30:22.447Z,24.13
2022-12-17T12:34:09.135Z,26.77
2022-12-17T12:37:34.274Z,29.35
2022-12-17T12:41:01.811Z,29.98
2022-12-17T12:44:34.985Z,34.90
2022-12-17T12:48:01.339Z,34.30
2022-12-17T12:51:48.750Z,31.92
2022-12-17T12:55:13.241Z,30.55
2022-12-17T12:58:49.110Z,28.30
2022-12-17T13:02:13.748Z,29.27
2022-12-17T13:05:37.463Z,25.90
2022-12-17T13:08:41.161Z,23.77
2022-12-17T13:11:55.202Z,17.17
2022-12-17T13:15:17.313Z,21.52
2022-12-17T13:18:40.601Z,19.77
2022-12-17T13:21:44.252Z,17.88
2022-12-17T13:24:49.261Z,19.75
2022-12-17T13:27:51.666Z,19.98
2022-12-17T13:31:06.390Z,19.45
2022-12-17T13:34:28.092Z,21.75
2022-12-17T13:38:24.914Z,18.90
2022-12-17T13:41:31.041Z,13.48
2022-12-17T13:44:44.056Z,18.95
2022-12-17T13:47:54.387Z,12.52
2022-12-17T13:51:00.357Z,16.90
2022-12-17T13:54:04.956Z,17.98
2022-12-17T13:57:16.665Z,18.15
2022-12-17T14:00:25.300Z,11.43
2022-12-17T14:04:05.945Z,14.45
2022-12-17T14:07:04.777Z,18.17
2022-12-17T14:10:17.695Z,13.35
2022-12-17T14:13:21.177Z,13.18
2022-12-17T14:16:26.105Z,12.55
2022-12-17T14:19:31.000Z,11.23
2022-12-17T14:22:40.234Z,12.18
2022-12-17T14:26:15.742Z,17.45
2022-12-17T14:29:29.150Z,14.38
2022-12-17T14:32:36.789Z,18.50
2022-12-17T14:35:40.799Z,10.57
2022-12-17T14:38:58.155Z,12.40
2022-12-17T14:42:31.407Z,9.10
2022-12-17T14:45:53.739Z,9.23
2022-12-17T14:49:03.221Z,9.75
2022-12-17T14:52:17.843Z,13.65
2022-12-17T14:55:34.467Z,17.17
2022-12-17T14:58:54.209Z,16.75
2022-12-17T15:02:01.586Z,10.20
2022-12-17T15:05:04.979Z,9.52
2022-12-17T15:08:09.208Z,10.40
2022-12-17T15:11:13.137Z,9.77
2022-12-17T15:14:20.151Z,9.38
2022-12-17T15:17:22.348Z,6.70
2022-12-17T15:20:24.497Z,10.27
2022-12-17T15:23:31.851Z,7.65
2022-12-17T15:27:00.958Z,9.05
2022-12-17T15:30:03.232Z,8.68
2022-12-17T15:33:06.725Z,6.18
2022-12-17T15:36:11.547Z,12.52
2022-12-17T15:39:13.694Z,8.35
2022-12-17T15:43:05.833Z,6.80
2022-12-17T15:46:39.971Z,13.57
2022-12-17T15:49:46.331Z,12.98
2022-12-17T15:52:51.617Z,7.47
2022-12-17T15:56:06.313Z,5.78
2022-12-17T15:59:20.289Z,5.40
2022-12-17T16:02:43.148Z,8.30
2022-12-17T16:06:27.806Z,14.90
2022-12-17T16:09:30.163Z,5.40
2022-12-17T16:12:33.917Z,7.25
2022-12-17T16:15:36.450Z,9.80
2022-12-17T16:18:39.471Z,7.05
2022-12-17T16:21:46.672Z,9.77
2022-12-17T16:24:50.476Z,10.18
2022-12-17T16:27:52.656Z,9.73
2022-12-17T16:31:10.758Z,7.10
2022-12-17T16:34:15.035Z,15.07
2022-12-17T16:37:18.311Z,6.60
2022-12-17T16:40:21.992Z,11.80
2022-12-17T16:43:25.394Z,11.48
2022-12-17T16:46:31.730Z,10.45
2022-12-17T16:49:34.100Z,7.05
2022-12-17T16:52:37.943Z,8.50
2022-12-17T16:55:47.025Z,8.73
2022-12-17T16:58:49.705Z,5.78
2022-12-17T17:01:52.836Z,7.28
2022-12-17T17:04:55.148Z,9.93
2022-12-17T17:08:00.642Z,13.50
2022-12-17T17:11:19.454Z,6.65
2022-12-17T17:14:21.699Z,8.35
2022-12-17T17:17:54.085Z,7.93
2022-12-17T17:20:50.740Z,9.23
2022-12-17T17:23:57.298Z,5.95
2022-12-17T17:26:59.460Z,5.70
2022-12-17T17:30:03.840Z,6.60
2022-12-17T17:33:06.531Z,13.80
2022-12-17T17:36:14.353Z,8.68
2022-12-17T17:39:17.702Z,13.88
2022-12-17T17:42:19.863Z,8.85
2022-12-17T17:45:22.857Z,7.60
2022-12-17T17:48:27.084Z,7.03
2022-12-17T17:52:07.316Z,6.07
2022-12-17T17:54:58.095Z,8.77
2022-12-17T17:58:00.323Z,10.15
2022-12-17T18:01:13.855Z,7.72
2022-12-17T18:04:21.051Z,5.38
2022-12-17T18:07:26.398Z,4.22
2022-12-17T18:10:29.795Z,7.68
2022-12-17T18:13:51.298Z,12.52
2022-12-17T18:16:55.260Z,7.00
2022-12-17T18:19:57.366Z,11.35
2022-12-17T18:22:59.550Z,5.85
2022-12-17T18:26:10.091Z,6.95
2022-12-17T18:29:16.841Z,7.95
2022-12-17T18:32:18.841Z,6.18
2022-12-17T18:35:22.064Z,7.78
2022-12-17T18:38:25.273Z,6.90
2022-12-17T18:41:46.939Z,7.53
2022-12-17T18:44:49.300Z,10.35
2022-12-17T18:47:52.303Z,6.38
2022-12-17T18:50:55.414Z,5.65
2022-12-17T18:54:07.539Z,7.38
2022-12-17T18:57:45.433Z,15.30
2022-12-17T19:00:47.619Z,14.85
2022-12-17T19:03:53.102Z,7.57
2022-12-17T19:06:55.363Z,8.63
2022-12-17T19:10:02.803Z,10.65
2022-12-17T19:13:06.250Z,12.43
2022-12-17T19:16:11.898Z,17.08
2022-12-17T19:19:18.260Z,13.73
2022-12-17T19:27:31.260Z,20.60
2022-12-17T19:30:47.880Z,8.70
2022-12-17T19:33:57.740Z,10.18
2022-12-17T19:37:25.449Z,8.73
2022-12-17T19:40:41.642Z,17.63
2022-12-17T19:47:35.085Z,11.75
2022-12-17T19:54:04.759Z,18.50
2022-12-17T19:57:11.807Z,19.15
2022-12-17T20:00:37.281Z,21.15
2022-12-17T20:03:46.603Z,21.73
2022-12-17T20:07:10.208Z,16.00
2022-12-17T20:10:27.077Z,24.75
2022-12-17T20:13:31.099Z,18.17
2022-12-17T20:16:39.219Z,13.30
2022-12-17T20:19:43.828Z,17.93
2022-12-17T20:22:51.727Z,15.60
2022-12-17T20:26:13.947Z,25.80
2022-12-17T20:29:23.327Z,12.40
2022-12-17T20:32:32.437Z,11.60
2022-12-17T20:35:42.388Z,12.75
2022-12-17T20:38:47.822Z,12.20
2022-12-17T20:41:57.620Z,14.77
2022-12-17T20:44:59.957Z,13.98
2022-12-17T20:48:05.374Z,11.90
2022-12-17T20:51:10.114Z,21.00
2022-12-17T20:54:16.114Z,11.80
2022-12-17T20:57:23.270Z,17.75
2022-12-17T21:00:38.954Z,11.27
2022-12-17T21:03:45.957Z,18.13
2022-12-17T21:06:50.289Z,15.57
2022-12-17T21:09:54.673Z,18.25
2022-12-17T21:13:19.711Z,16.08
2022-12-17T21:16:41.849Z,18.85
2022-12-17T21:19:47.140Z,28.95
2022-12-17T21:22:51.683Z,23.17
2022-12-17T21:26:08.808Z,22.95
2022-12-17T21:29:14.837Z,27.88
2022-12-17T21:32:16.945Z,16.27
2022-12-17T21:35:19.240Z,24.65
2022-12-17T21:38:21.403Z,26.20
2022-12-17T21:41:26.753Z,25.65
2022-12-17T21:44:28.764Z,23.50
2022-12-17T21:47:33.887Z,25.33
2022-12-17T21:50:40.794Z,25.10
2022-12-17T21:53:43.858Z,27.20
2022-12-17T21:56:45.949Z,30.63
2022-12-17T21:59:48.116Z,28.80
2022-12-17T22:02:51.130Z,27.95
2022-12-17T22:05:53.411Z,28.85
2022-12-17T22:09:01.505Z,30.60
2022-12-17T22:12:31.168Z,31.75
2022-12-17T22:15:34.479Z,26.13
2022-12-17T22:18:45.339Z,28.23
2022-12-17T22:21:49.357Z,33.60
2022-12-17T22:24:51.885Z,29.92
2022-12-17T22:27:54.232Z,27.83
2022-12-17T22:31:15.272Z,28.25
2022-12-17T22:34:58.080Z,27.58
2022-12-17T22:39:34.915Z,33.60
2022-12-17T22:44:36.892Z,30.75
2022-12-17T22:44:51.859Z,30.02
2022-12-17T22:47:52.155Z,26.55
2022-12-17T22:51:06.562Z,31.00
2022-12-17T22:54:13.416Z,31.25
2022-12-17T22:57:35.942Z,35.90
2022-12-17T23:00:38.196Z,29.48
2022-12-17T23:03:41.693Z,37.53
2022-12-17T23:06:45.860Z,38.17
2022-12-17T23:09:47.929Z,31.90
2022-12-17T23:12:54.361Z,33.95
2022-12-17T23:15:56.560Z,34.45
2022-12-17T23:19:02.328Z,38.05
2022-12-17T23:22:04.411Z,37.28
2022-12-17T23:25:07.120Z,32.97
2022-12-17T23:28:09.187Z,38.95
2022-12-17T23:31:14.615Z,35.92
2022-12-17T23:34:16.737Z,31.33
2022-12-17T23:37:18.846Z,35.83
2022-12-17T23:40:21.532Z,37.83
2022-12-17T23:43:23.618Z,37.55
2022-12-17T23:46:29.938Z,29.73
2022-12-17T23:49:32.574Z,31.40
2022-12-17T23:52:38.363Z,34.08
2022-12-17T23:55:40.494Z,37.85
2022-12-17T23:58:43.986Z,31.00
